Time;durP1;ratioP1;P1;durP2;ratioP2;P2;SDS_P1;SDS_P2;PMS_P1;PMS_P2;Temp;Humidity;BMP_temperature;BMP_pressure;BME280_temperature;BME280_humidity;BME280_pressure;Samples;Min_cycle;Max_cycle;Signal;HPM_P1;HPM_P2
2022/01/20 00:01:50;;;;;;;6.03;3.05;;;3.50;70.40;;;;;;5057896;28;20032;-76
2022/01/20 00:07:35;;;;;;;6.50;2.92;;;3.50;69.80;;;;;;5075852;28;20040;-76
2022/01/20 00:28:20;;;;;;;5.53;2.95;;;3.20;71.50;;;;;;5075724;28;20501;-80
2022/01/20 00:30:52;;;;;;;4.95;3.13;;;3.10;71.80;;;;;;5057489;28;20029;-79
2022/01/20 00:33:32;;;;;;;5.13;3.72;;;3.10;72.30;;;;;;5075304;28;20051;-79
2022/01/20 00:38:34;;;;;;;4.35;3.17;;;3.10;72.20;;;;;;5058802;28;20101;-79
2022/01/20 00:41:00;;;;;;;6.85;3.30;;;3.10;72.30;;;;;;5057204;28;20142;-79
2022/01/20 00:43:26;;;;;;;4.13;2.95;;;3.10;72.10;;;;;;5040600;28;20056;-79
2022/01/20 00:45:52;;;;;;;4.95;3.05;;;3.00;72.70;;;;;;5057013;28;20488;-80
2022/01/20 00:48:18;;;;;;;4.20;2.83;;;3.00;73.00;;;;;;5057279;28;20021;-78
2022/01/20 00:50:44;;;;;;;4.68;2.72;;;3.00;73.20;;;;;;5075192;28;20012;-79
2022/01/20 00:53:09;;;;;;;3.80;2.72;;;3.00;73.00;;;;;;5057435;28;20052;-80
2022/01/20 00:55:37;;;;;;;4.43;3.05;;;3.00;72.90;;;;;;5058696;28;20024;-79
2022/01/20 00:58:02;;;;;;;4.70;2.90;;;3.00;73.60;;;;;;5057794;28;20063;-81
2022/01/20 01:00:28;;;;;;;5.95;2.78;;;3.00;72.90;;;;;;5057516;28;20048;-78
2022/01/20 01:02:56;;;;;;;4.07;2.78;;;2.90;73.30;;;;;;5057821;28;20107;-79
2022/01/20 01:05:22;;;;;;;4.82;2.50;;;3.00;73.60;;;;;;5057939;28;20393;-79
2022/01/20 01:07:50;;;;;;;3.35;2.40;;;3.10;73.30;;;;;;5064066;28;20020;-78
2022/01/20 01:10:30;;;;;;;3.80;2.40;;;3.10;73.10;;;;;;5067610;28;20017;-80
2022/01/20 01:13:01;;;;;;;4.22;2.58;;;3.10;73.10;;;;;;5056674;28;20078;-79
2022/01/20 01:15:36;;;;;;;2.35;2.00;;;3.20;73.00;;;;;;5056686;28;20023;-77
2022/01/20 01:23:34;;;;;;;3.10;2.45;;;3.50;72.20;;;;;;5074483;28;20029;-75
2022/01/20 01:26:02;;;;;;;2.55;1.95;;;3.50;71.90;;;;;;5056420;28;20036;-79
2022/01/20 01:28:30;;;;;;;3.20;1.83;;;3.50;71.70;;;;;;5056459;28;20020;-79
2022/01/20 01:33:51;;;;;;;2.92;2.25;;;3.60;71.60;;;;;;5074547;28;20388;-77
2022/01/20 01:36:20;;;;;;;2.97;2.28;;;3.60;71.20;;;;;;5056230;28;20052;-78
2022/01/20 01:38:47;;;;;;;3.53;1.80;;;3.50;71.30;;;;;;5056141;28;20040;-76
2022/01/20 01:41:16;;;;;;;3.63;2.00;;;3.40;71.70;;;;;;5056113;28;20024;-77
2022/01/20 01:43:45;;;;;;;3.15;2.22;;;3.30;72.20;;;;;;5056244;28;20610;-75
2022/01/20 01:46:13;;;;;;;3.05;1.77;;;3.40;72.70;;;;;;5056002;28;20025;-76
2022/01/20 01:48:41;;;;;;;4.55;2.28;;;3.40;72.90;;;;;;5055806;28;20393;-76
2022/01/20 01:51:07;;;;;;;3.05;2.08;;;3.40;73.10;;;;;;5089344;28;20377;-75
2022/01/20 01:53:33;;;;;;;3.50;2.10;;;3.40;73.20;;;;;;5055922;28;20077;-77
2022/01/20 01:55:59;;;;;;;2.85;2.00;;;3.50;73.30;;;;;;5055741;28;20024;-78
2022/01/20 01:58:24;;;;;;;2.75;1.80;;;3.40;73.20;;;;;;5055847;28;20036;-78
2022/01/20 02:00:50;;;;;;;2.35;1.75;;;3.40;73.50;;;;;;5055557;28;20119;-78
2022/01/20 02:03:16;;;;;;;3.92;1.65;;;3.40;73.50;;;;;;5055751;28;20492;-75
2022/01/20 02:08:35;;;;;;;2.83;1.63;;;3.40;73.60;;;;;;5073837;28;20035;-75
2022/01/20 02:19:14;;;;;;;2.22;1.33;;;3.40;73.60;;;;;;5073747;28;20027;-77
2022/01/20 02:21:50;;;;;;;1.50;1.40;;;3.40;73.60;;;;;;5055532;28;20039;-77
2022/01/20 02:24:16;;;;;;;2.78;1.35;;;3.50;73.40;;;;;;5055408;28;20056;-77
2022/01/20 02:26:42;;;;;;;1.55;1.13;;;3.50;73.30;;;;;;5055019;28;20025;-78
2022/01/20 02:29:08;;;;;;;1.77;1.30;;;3.40;73.10;;;;;;5055147;28;20509;-76
2022/01/20 02:31:34;;;;;;;1.88;1.35;;;3.40;73.30;;;;;;5055163;28;20025;-76
2022/01/20 02:34:00;;;;;;;1.70;1.33;;;3.40;73.70;;;;;;5073024;28;20026;-76
2022/01/20 02:36:27;;;;;;;2.55;1.35;;;3.40;72.90;;;;;;5055056;28;20051;-76
2022/01/20 02:38:58;;;;;;;2.92;1.42;;;3.40;72.90;;;;;;5055244;28;20039;-80
2022/01/20 02:46:51;;;;;;;1.40;1.20;;;3.40;73.20;;;;;;5073352;28;20035;-76
2022/01/20 02:49:18;;;;;;;2.13;1.42;;;3.40;73.10;;;;;;5055043;28;20021;-75
2022/01/20 02:51:51;;;;;;;2.38;1.30;;;3.40;73.20;;;;;;5055024;28;20028;-76
2022/01/20 02:54:18;;;;;;;2.90;1.55;;;3.50;73.40;;;;;;5055034;28;20488;-75
2022/01/20 02:56:44;;;;;;;2.95;1.67;;;3.50;73.00;;;;;;5054769;28;20480;-76
2022/01/20 02:59:10;;;;;;;2.63;1.50;;;3.50;72.80;;;;;;5054864;28;20017;-75
2022/01/20 03:01:36;;;;;;;1.40;1.20;;;3.50;73.00;;;;;;5054879;28;20491;-75
2022/01/20 03:04:03;;;;;;;2.65;1.30;;;3.50;73.20;;;;;;5054838;28;20107;-76
2022/01/20 03:06:29;;;;;;;1.65;1.10;;;3.60;72.70;;;;;;5054792;28;20111;-75
2022/01/20 03:08:54;;;;;;;1.83;1.17;;;3.60;72.70;;;;;;5054847;28;20074;-75
2022/01/20 03:11:20;;;;;;;1.40;1.00;;;3.60;72.90;;;;;;5054919;28;20078;-75
2022/01/20 03:13:46;;;;;;;1.35;1.02;;;3.60;73.20;;;;;;5054902;28;20048;-75
2022/01/20 03:16:11;;;;;;;1.48;1.25;;;3.60;73.30;;;;;;5054760;28;20031;-75
2022/01/20 03:18:37;;;;;;;2.15;1.55;;;3.60;73.20;;;;;;5054665;28;20039;-75
2022/01/20 03:21:03;;;;;;;0.95;0.90;;;3.40;74.10;;;;;;5054713;28;20429;-76
2022/01/20 03:23:28;;;;;;;1.70;1.38;;;3.40;74.20;;;;;;5038129;28;20032;-77
2022/01/20 03:25:54;;;;;;;2.25;1.60;;;3.40;74.30;;;;;;5054653;28;20162;-75
2022/01/20 03:28:20;;;;;;;1.83;1.27;;;3.40;74.80;;;;;;5039163;28;20416;-78
2022/01/20 03:30:45;;;;;;;1.52;1.00;;;3.40;74.60;;;;;;5058578;28;20059;-75
2022/01/20 03:33:12;;;;;;;1.83;1.55;;;3.40;74.60;;;;;;5076443;28;20534;-75
2022/01/20 03:35:40;;;;;;;2.95;1.83;;;3.40;74.60;;;;;;5058567;28;20028;-75
2022/01/20 03:38:05;;;;;;;1.13;1.02;;;3.40;74.40;;;;;;5058090;28;20052;-76
2022/01/20 03:40:31;;;;;;;1.65;1.15;;;3.40;74.70;;;;;;5058335;28;20017;-75
2022/01/20 03:42:58;;;;;;;1.70;1.40;;;3.40;74.90;;;;;;5058335;28;20113;-75
2022/01/20 03:45:26;;;;;;;1.55;1.08;;;3.40;74.70;;;;;;5058235;28;20047;-74
2022/01/20 03:47:55;;;;;;;2.17;1.42;;;3.30;75.20;;;;;;5058115;28;20042;-75
2022/01/20 03:53:06;;;;;;;1.65;1.23;;;3.40;75.40;;;;;;5076361;28;20082;-77
2022/01/20 03:55:32;;;;;;;2.10;1.27;;;3.40;75.50;;;;;;5058156;28;20469;-75
2022/01/20 03:57:57;;;;;;;1.63;1.17;;;3.30;75.80;;;;;;5057879;28;20431;-78
2022/01/20 04:00:23;;;;;;;1.05;0.85;;;3.40;75.90;;;;;;5058027;28;20016;-78
2022/01/20 04:02:48;;;;;;;0.90;0.90;;;3.30;75.90;;;;;;5057643;28;20514;-78
2022/01/20 04:05:14;;;;;;;0.75;0.75;;;3.30;76.20;;;;;;5057955;28;20533;-77
2022/01/20 04:07:40;;;;;;;2.80;1.00;;;3.30;76.50;;;;;;5057877;28;20515;-77
2022/01/20 04:10:05;;;;;;;1.02;0.90;;;3.30;76.70;;;;;;5057798;28;20441;-77
2022/01/20 04:12:31;;;;;;;0.80;0.80;;;3.30;76.60;;;;;;5057912;28;20025;-77
2022/01/20 04:14:56;;;;;;;1.48;0.95;;;3.30;76.50;;;;;;5057573;28;20461;-77
2022/01/20 04:17:26;;;;;;;1.15;1.00;;;3.30;76.70;;;;;;5057718;28;20029;-75
2022/01/20 04:19:52;;;;;;;4.32;2.38;;;3.30;76.90;;;;;;5057496;28;20025;-76
2022/01/20 04:22:17;;;;;;;5.50;3.53;;;3.40;76.60;;;;;;5057761;28;20073;-76
2022/01/20 04:24:43;;;;;;;6.78;3.65;;;3.30;76.90;;;;;;5057503;28;20058;-76
2022/01/20 04:27:10;;;;;;;3.65;2.15;;;3.30;77.10;;;;;;5057594;28;20385;-76
2022/01/20 04:29:36;;;;;;;3.13;1.80;;;3.30;77.10;;;;;;5057629;28;20028;-76
2022/01/20 04:32:03;;;;;;;3.42;1.02;;;3.30;77.30;;;;;;5059347;28;20028;-77
2022/01/20 04:34:29;;;;;;;2.58;1.20;;;3.30;77.50;;;;;;5080414;28;20024;-76
2022/01/20 04:36:55;;;;;;;2.20;1.10;;;3.20;77.80;;;;;;5059204;28;20049;-76
2022/01/20 04:39:27;;;;;;;1.15;0.93;;;3.20;78.60;;;;;;5057251;28;20080;-76
2022/01/20 04:41:54;;;;;;;2.88;1.38;;;3.00;79.70;;;;;;5057141;28;20370;-76
2022/01/20 04:45:08;;;;;;;7.35;3.30;;;3.10;80.10;;;;;;5057218;28;20024;-76
2022/01/20 04:47:31;;;;;;;;;;;3.10;80.50;;;;;;5064577;28;20448;-76
2022/01/20 04:58:09;;;;;;;3.35;1.40;;;3.10;81.60;;;;;;5075071;28;20047;-76
2022/01/20 05:00:35;;;;;;;2.80;1.70;;;3.10;81.80;;;;;;5073667;28;20111;-76
2022/01/20 05:03:04;;;;;;;17.15;2.08;;;3.20;81.80;;;;;;5056789;28;20043;-77
2022/01/20 05:05:29;;;;;;;2.13;1.60;;;3.20;81.80;;;;;;5056852;28;20115;-76
2022/01/20 05:07:55;;;;;;;4.40;2.35;;;3.20;81.80;;;;;;5056937;28;20475;-75
2022/01/20 05:10:21;;;;;;;3.70;2.20;;;3.10;82.80;;;;;;5056923;28;20385;-76
2022/01/20 05:13:04;;;;;;;4.88;2.80;;;3.20;82.00;;;;;;5039934;28;20048;-75
2022/01/20 05:15:32;;;;;;;12.85;7.28;;;3.20;81.80;;;;;;5056716;28;20035;-75
2022/01/20 05:17:58;;;;;;;6.30;3.35;;;3.20;81.60;;;;;;5072971;28;20143;-75
2022/01/20 05:20:23;;;;;;;3.22;1.83;;;3.10;81.60;;;;;;5039986;28;20074;-76
2022/01/20 05:22:49;;;;;;;2.90;1.40;;;3.20;81.10;;;;;;5056343;28;20548;-75
2022/01/20 05:25:15;;;;;;;1.98;1.40;;;3.10;81.00;;;;;;5056440;28;20051;-77
2022/01/20 05:27:41;;;;;;;6.70;1.30;;;3.10;81.10;;;;;;5056336;28;20133;-77
2022/01/20 05:30:08;;;;;;;2.10;1.38;;;3.20;81.00;;;;;;5056473;28;20042;-76
2022/01/20 05:32:35;;;;;;;4.47;1.38;;;3.20;80.60;;;;;;5073562;28;20039;-78
2022/01/20 05:35:01;;;;;;;2.50;1.30;;;3.20;80.60;;;;;;5056440;28;20036;-77
2022/01/20 05:37:26;;;;;;;1.42;0.93;;;3.20;80.40;;;;;;5055799;28;20044;-76
2022/01/20 05:39:56;;;;;;;4.38;2.40;;;3.10;81.30;;;;;;5056348;28;20045;-78
2022/01/20 05:42:21;;;;;;;5.10;2.63;;;3.10;80.40;;;;;;5056348;28;20024;-76
2022/01/20 05:44:50;;;;;;;2.65;1.70;;;3.10;80.10;;;;;;5055996;28;20021;-79
2022/01/20 05:47:25;;;;;;;2.38;1.70;;;3.00;80.30;;;;;;5056247;28;20123;-80
2022/01/20 05:49:50;;;;;;;1.63;1.20;;;3.00;80.70;;;;;;5074156;28;20115;-79
2022/01/20 05:52:17;;;;;;;2.03;1.20;;;3.00;80.40;;;;;;5055583;28;20111;-77
2022/01/20 05:54:42;;;;;;;1.98;1.30;;;2.90;80.90;;;;;;5055883;28;20020;-79
2022/01/20 05:57:10;;;;;;;2.50;1.48;;;3.00;81.10;;;;;;5055665;28;20032;-76
2022/01/20 05:59:36;;;;;;;1.85;1.45;;;2.90;81.60;;;;;;5089324;28;20035;-77
2022/01/20 06:02:11;;;;;;;7.65;4.03;;;2.90;81.90;;;;;;5055664;28;20028;-79
2022/01/20 06:04:39;;;;;;;2.92;1.90;;;2.90;82.20;;;;;;5055824;28;20393;-78
2022/01/20 06:07:04;;;;;;;3.30;2.10;;;2.90;82.70;;;;;;5055595;28;20558;-79
2022/01/20 06:09:31;;;;;;;3.45;2.13;;;2.90;82.00;;;;;;5055484;28;20032;-78
2022/01/20 06:11:57;;;;;;;1.98;1.50;;;2.80;82.00;;;;;;5038767;28;20054;-78
2022/01/20 06:14:23;;;;;;;2.15;1.30;;;2.80;82.30;;;;;;5055493;28;20020;-79
2022/01/20 06:16:49;;;;;;;1.73;1.35;;;2.80;83.00;;;;;;5055165;28;20092;-78
2022/01/20 06:19:15;;;;;;;3.65;1.48;;;2.70;83.10;;;;;;5055194;28;20032;-77
2022/01/20 06:21:41;;;;;;;2.55;1.60;;;2.70;83.50;;;;;;5055267;28;20074;-80
2022/01/20 06:24:08;;;;;;;6.30;2.53;;;2.70;83.70;;;;;;5055024;28;20052;-79
2022/01/20 06:26:33;;;;;;;4.10;1.80;;;2.60;83.90;;;;;;5055164;28;20017;-78
2022/01/20 06:28:59;;;;;;;3.60;1.45;;;2.60;84.30;;;;;;5038411;28;20040;-78
2022/01/20 06:31:24;;;;;;;6.65;1.95;;;2.50;85.00;;;;;;5054308;28;20085;-76
2022/01/20 06:33:50;;;;;;;3.45;1.80;;;2.40;85.70;;;;;;5087303;28;20392;-78
2022/01/20 06:36:16;;;;;;;3.42;2.00;;;2.50;86.20;;;;;;5054832;28;20500;-75
2022/01/20 06:38:43;;;;;;;4.30;2.20;;;2.40;86.30;;;;;;5072871;28;20442;-78
2022/01/20 06:41:10;;;;;;;4.22;2.53;;;2.40;86.70;;;;;;5054935;28;20078;-76
2022/01/20 06:43:35;;;;;;;5.38;3.00;;;2.40;86.80;;;;;;5055039;28;20491;-79
2022/01/20 06:46:01;;;;;;;4.28;2.95;;;2.30;87.10;;;;;;5054533;28;20029;-81
2022/01/20 06:48:27;;;;;;;5.53;3.03;;;2.30;87.40;;;;;;5088367;28;20029;-81
2022/01/20 06:50:52;;;;;;;6.25;3.30;;;2.30;87.00;;;;;;5054902;28;20028;-80
2022/01/20 06:53:18;;;;;;;8.10;3.20;;;2.40;86.90;;;;;;5087968;28;20027;-77
2022/01/20 06:55:43;;;;;;;3.88;2.40;;;2.40;86.20;;;;;;5054844;28;20078;-78
2022/01/20 06:58:09;;;;;;;4.07;3.10;;;2.40;85.80;;;;;;5054842;28;20606;-79
2022/01/20 07:00:35;;;;;;;5.90;3.08;;;2.50;86.60;;;;;;5054462;28;20047;-79
2022/01/20 07:03:00;;;;;;;8.20;3.05;;;2.50;85.60;;;;;;5059073;28;20034;-79
2022/01/20 07:05:26;;;;;;;5.90;3.25;;;2.50;85.40;;;;;;5063195;28;20023;-78
2022/01/20 07:07:53;;;;;;;6.57;3.53;;;2.50;86.30;;;;;;5091867;28;20166;-79
2022/01/20 07:10:20;;;;;;;8.65;5.10;;;2.40;85.90;;;;;;5074487;28;20074;-78
2022/01/20 07:12:47;;;;;;;5.40;3.03;;;2.50;85.70;;;;;;5053840;28;20024;-78
2022/01/20 07:15:15;;;;;;;3.97;2.72;;;2.30;86.10;;;;;;5059861;28;20059;-81
2022/01/20 07:17:41;;;;;;;5.53;3.00;;;2.40;86.40;;;;;;5054849;28;20136;-81
2022/01/20 07:20:07;;;;;;;4.90;2.83;;;2.30;86.30;;;;;;5071215;28;20043;-81
2022/01/20 07:22:33;;;;;;;5.30;3.05;;;2.30;86.60;;;;;;5054731;28;20035;-83
2022/01/20 07:24:59;;;;;;;4.80;2.30;;;2.40;86.50;;;;;;5054542;28;20115;-82
2022/01/20 07:27:24;;;;;;;6.82;2.92;;;2.40;86.30;;;;;;5054677;28;20476;-79
2022/01/20 07:29:50;;;;;;;5.95;3.17;;;2.50;86.20;;;;;;5054526;28;20101;-78
2022/01/20 07:32:16;;;;;;;8.05;3.92;;;2.50;85.90;;;;;;5054362;28;20475;-79
2022/01/20 07:34:42;;;;;;;4.20;2.58;;;3.10;89.00;;;;;;5071182;28;20036;-78
2022/01/20 07:37:08;;;;;;;4.90;3.17;;;3.40;87.70;;;;;;5054066;28;20393;-75
2022/01/20 07:39:33;;;;;;;5.80;2.97;;;3.80;87.00;;;;;;5054555;28;20035;-75
2022/01/20 07:41:59;;;;;;;6.78;2.70;;;4.20;85.20;;;;;;5054549;28;20486;-77
2022/01/20 07:44:29;;;;;;;6.80;2.10;;;4.70;85.80;;;;;;5054659;28;20024;-77
2022/01/20 07:46:55;;;;;;;2.95;2.00;;;5.30;82.00;;;;;;5038092;28;20029;-77
2022/01/20 07:49:23;;;;;;;5.40;2.38;;;5.60;77.60;;;;;;5054453;28;20024;-77
2022/01/20 07:51:48;;;;;;;3.25;2.28;;;5.70;74.10;;;;;;5070835;28;20036;-77
2022/01/20 07:54:14;;;;;;;3.97;2.13;;;5.80;74.80;;;;;;5087707;28;20047;-77
2022/01/20 07:56:39;;;;;;;5.05;2.40;;;5.70;73.60;;;;;;5071098;28;20037;-77
2022/01/20 07:59:08;;;;;;;2.88;1.90;;;5.80;73.10;;;;;;5037721;28;20394;-80
2022/01/20 08:01:35;;;;;;;2.30;2.10;;;5.70;72.10;;;;;;5054195;28;20124;-82
2022/01/20 08:04:01;;;;;;;4.57;2.50;;;5.70;72.10;;;;;;5054217;28;20039;-79
2022/01/20 08:06:28;;;;;;;3.83;2.72;;;5.10;71.40;;;;;;5054155;28;20389;-80
2022/01/20 08:08:53;;;;;;;3.78;2.20;;;4.50;74.00;;;;;;5054262;28;20070;-80
2022/01/20 08:11:21;;;;;;;5.03;2.75;;;3.90;76.40;;;;;;5037676;28;20489;-77
2022/01/20 08:13:47;;;;;;;3.53;2.30;;;3.80;77.90;;;;;;5054148;28;20089;-75
2022/01/20 08:16:14;;;;;;;3.55;2.08;;;3.60;78.50;;;;;;5056281;28;20445;-76
2022/01/20 08:18:39;;;;;;;3.88;2.45;;;3.50;79.00;;;;;;5057649;28;20033;-78
2022/01/20 08:21:05;;;;;;;6.07;2.90;;;3.40;79.50;;;;;;5057263;28;20170;-77
2022/01/20 08:23:31;;;;;;;4.70;2.67;;;3.30;79.80;;;;;;5057595;28;20079;-76
2022/01/20 08:25:56;;;;;;;3.25;2.88;;;3.40;80.10;;;;;;5057311;28;20012;-78
2022/01/20 08:28:23;;;;;;;5.82;3.10;;;3.40;80.30;;;;;;5066484;28;20423;-76
2022/01/20 08:30:49;;;;;;;6.13;2.92;;;3.30;80.30;;;;;;5069435;28;20021;-77
2022/01/20 08:33:15;;;;;;;4.78;3.05;;;3.30;80.40;;;;;;5058372;28;20115;-78
2022/01/20 08:35:41;;;;;;;11.15;5.90;;;3.20;80.90;;;;;;5057325;28;20060;-76
2022/01/20 08:38:07;;;;;;;6.40;3.47;;;3.10;82.00;;;;;;5057313;28;20106;-78
2022/01/20 08:40:34;;;;;;;7.57;4.32;;;3.10;82.20;;;;;;5057275;28;20029;-78
2022/01/20 08:43:00;;;;;;;4.43;3.35;;;3.10;82.80;;;;;;5057258;28;20115;-77
2022/01/20 08:45:30;;;;;;;5.00;2.72;;;3.10;82.70;;;;;;5057157;28;20384;-75
2022/01/20 08:47:57;;;;;;;5.43;2.90;;;3.00;83.00;;;;;;5056954;28;20020;-78
2022/01/20 08:50:24;;;;;;;4.05;3.10;;;3.00;83.10;;;;;;5075172;28;20017;-79
2022/01/20 08:52:51;;;;;;;7.10;3.50;;;3.10;83.40;;;;;;5056995;28;20035;-77
2022/01/20 08:55:18;;;;;;;4.30;3.42;;;3.10;83.40;;;;;;5074934;28;20020;-78
2022/01/20 08:57:45;;;;;;;4.68;2.85;;;2.90;84.10;;;;;;5056960;28;20097;-78
2022/01/20 09:00:13;;;;;;;4.20;3.40;;;2.80;84.50;;;;;;5057028;28;20170;-77
2022/01/20 09:02:38;;;;;;;8.43;4.45;;;2.80;85.00;;;;;;5040556;28;20040;-77
2022/01/20 09:05:05;;;;;;;7.88;3.65;;;2.70;84.70;;;;;;5056662;28;20395;-78
2022/01/20 09:07:33;;;;;;;7.32;4.22;;;2.60;84.50;;;;;;5056689;28;20032;-78
2022/01/20 09:10:00;;;;;;;6.75;3.60;;;2.60;85.10;;;;;;5056539;28;20036;-81
2022/01/20 09:17:45;;;;;;;9.20;4.25;;;2.60;85.10;;;;;;5074633;28;20040;-81
2022/01/20 09:20:11;;;;;;;8.63;4.05;;;2.60;84.90;;;;;;5056714;28;20028;-82
2022/01/20 09:22:37;;;;;;;5.68;3.30;;;2.60;84.50;;;;;;5056470;28;20025;-80
2022/01/20 09:25:04;;;;;;;8.75;3.95;;;2.60;83.70;;;;;;5056406;28;20381;-82
2022/01/20 09:27:32;;;;;;;10.02;3.70;;;2.60;83.20;;;;;;5056307;28;20024;-83
2022/01/20 09:30:02;;;;;;;8.23;3.65;;;2.60;81.20;;;;;;5056250;28;20128;-81
2022/01/20 09:32:30;;;;;;;6.97;3.45;;;2.60;81.60;;;;;;5056128;28;20441;-81
2022/01/20 09:34:56;;;;;;;6.57;3.08;;;2.70;82.40;;;;;;5056040;28;20024;-81
2022/01/20 09:37:23;;;;;;;8.43;3.92;;;2.80;81.80;;;;;;5056005;28;20111;-81
2022/01/20 09:39:49;;;;;;;8.98;3.45;;;2.90;81.60;;;;;;5056060;28;20020;-80
2022/01/20 09:42:14;;;;;;;9.85;3.40;;;2.90;81.40;;;;;;5056097;28;20028;-81
2022/01/20 09:44:45;;;;;;;9.95;3.35;;;2.90;81.00;;;;;;5055943;28;20483;-79
2022/01/20 09:47:11;;;;;;;10.00;3.40;;;2.90;80.70;;;;;;5055659;28;20024;-79
2022/01/20 09:49:38;;;;;;;8.48;2.90;;;3.00;80.20;;;;;;5072724;28;20036;-77
2022/01/20 09:52:04;;;;;;;12.43;3.50;;;3.00;79.10;;;;;;5055773;28;20024;-76
2022/01/20 09:54:31;;;;;;;6.30;2.88;;;3.20;78.80;;;;;;5056061;28;20028;-77
2022/01/20 09:56:59;;;;;;;7.88;3.45;;;3.10;78.00;;;;;;5055765;28;20469;-77
2022/01/20 09:59:25;;;;;;;13.38;3.45;;;3.20;77.80;;;;;;5055766;28;20481;-76
2022/01/20 10:01:57;;;;;;;13.38;4.65;;;3.30;77.10;;;;;;5073564;28;20480;-77
2022/01/20 10:04:35;;;;;;;8.98;3.20;;;3.30;76.80;;;;;;5055597;28;20111;-79
2022/01/20 10:07:04;;;;;;;11.63;4.50;;;3.20;76.60;;;;;;5055648;28;20029;-79
2022/01/20 10:09:41;;;;;;;13.70;4.05;;;3.10;77.60;;;;;;5055515;28;20032;-78
2022/01/20 10:12:10;;;;;;;11.35;4.25;;;3.10;78.50;;;;;;5055677;28;20027;-77
2022/01/20 10:15:20;;;;;;;12.02;4.50;;;2.90;79.30;;;;;;5055390;28;20020;-77
2022/01/20 10:17:46;;;;;;;11.07;4.28;;;2.90;79.90;;;;;;5089163;28;20389;-78
2022/01/20 10:20:12;;;;;;;15.27;5.45;;;2.90;80.20;;;;;;5058288;28;20021;-78
2022/01/20 10:22:38;;;;;;;15.55;5.40;;;2.90;80.50;;;;;;5057709;28;20551;-78
2022/01/20 10:25:05;;;;;;;12.55;4.32;;;2.90;80.30;;;;;;5058252;28;20028;-78
2022/01/20 10:27:33;;;;;;;10.35;4.22;;;3.00;80.10;;;;;;5069512;28;20024;-78
2022/01/20 10:30:05;;;;;;;9.85;3.67;;;3.10;79.00;;;;;;5078889;28;20530;-77
2022/01/20 10:32:49;;;;;;;10.48;3.50;;;3.00;78.70;;;;;;5078811;28;20032;-79
2022/01/20 10:35:18;;;;;;;12.40;3.97;;;3.00;79.90;;;;;;5079010;28;20009;-78
2022/01/20 10:38:00;;;;;;;9.35;3.95;;;3.10;79.20;;;;;;5095749;28;20040;-76
2022/01/20 10:40:27;;;;;;;15.40;4.03;;;3.10;79.00;;;;;;5085400;28;20016;-77
2022/01/20 10:42:55;;;;;;;8.95;3.35;;;3.20;78.30;;;;;;5059422;28;20059;-76
2022/01/20 10:45:27;;;;;;;13.68;4.07;;;3.10;78.20;;;;;;5057131;28;20143;-77
2022/01/20 10:47:57;;;;;;;13.15;4.35;;;3.00;78.70;;;;;;5056916;28;20020;-77
2022/01/20 10:50:29;;;;;;;15.30;3.40;;;3.10;78.20;;;;;;5042321;28;20025;-77
2022/01/20 10:52:55;;;;;;;14.35;3.67;;;3.10;78.20;;;;;;5059153;28;20027;-76
2022/01/20 10:55:23;;;;;;;11.35;3.78;;;3.00;79.00;;;;;;5056464;28;20079;-77
2022/01/20 10:57:50;;;;;;;10.15;3.70;;;2.90;79.70;;;;;;5054858;28;20028;-76
2022/01/20 11:00:19;;;;;;;10.73;3.88;;;2.90;79.60;;;;;;5055379;28;20032;-78
2022/01/20 11:02:51;;;;;;;13.55;4.05;;;3.00;79.60;;;;;;5054550;28;20020;-77
2022/01/20 11:05:18;;;;;;;13.68;3.47;;;2.90;80.90;;;;;;5054889;28;20024;-77
2022/01/20 11:07:44;;;;;;;12.95;4.00;;;3.00;80.40;;;;;;5054803;28;20104;-76
2022/01/20 11:10:11;;;;;;;16.05;4.47;;;3.00;80.30;;;;;;5072934;28;20028;-76
2022/01/20 11:12:37;;;;;;;10.45;3.35;;;3.10;79.90;;;;;;5054788;28;20109;-78
2022/01/20 11:15:07;;;;;;;11.85;4.25;;;3.00;79.90;;;;;;5088361;28;20016;-78
2022/01/20 11:17:36;;;;;;;11.15;3.13;;;3.00;80.00;;;;;;5054556;28;20040;-77
2022/01/20 11:20:15;;;;;;;13.20;3.85;;;3.10;79.70;;;;;;5054451;28;20120;-78
2022/01/20 11:22:53;;;;;;;15.98;3.60;;;3.10;78.90;;;;;;5054276;28;20025;-79
2022/01/20 11:25:22;;;;;;;10.27;3.10;;;3.20;78.60;;;;;;5059609;28;20037;-78
2022/01/20 11:27:52;;;;;;;10.05;3.20;;;3.40;78.00;;;;;;5057552;28;20091;-77
2022/01/20 11:30:26;;;;;;;13.45;3.40;;;3.50;77.70;;;;;;5054345;28;20469;-77
2022/01/20 11:33:13;;;;;;;14.48;3.63;;;3.40;77.20;;;;;;5054351;28;20028;-78
2022/01/20 11:35:54;;;;;;;11.43;3.70;;;3.40;77.70;;;;;;5054243;28;20028;-81
2022/01/20 11:38:23;;;;;;;15.68;3.22;;;3.40;77.50;;;;;;5053951;28;20040;-78
2022/01/20 11:40:59;;;;;;;12.57;2.72;;;3.40;77.60;;;;;;5053977;28;20025;-75
2022/01/20 11:43:52;;;;;;;12.57;3.20;;;3.30;77.50;;;;;;5072160;28;20099;-78
2022/01/20 11:46:24;;;;;;;14.02;3.60;;;3.30;78.20;;;;;;5053794;28;20017;-78
2022/01/20 11:48:53;;;;;;;13.68;3.83;;;3.30;78.50;;;;;;5054539;28;20521;-78
2022/01/20 11:51:20;;;;;;;19.52;3.88;;;3.20;78.50;;;;;;5057595;28;20069;-77
2022/01/20 11:54:01;;;;;;;13.68;3.85;;;3.20;78.70;;;;;;5075813;28;20039;-77
2022/01/20 11:56:30;;;;;;;11.57;2.92;;;3.20;79.20;;;;;;5074713;28;20513;-79
2022/01/20 11:58:56;;;;;;;9.07;3.67;;;3.20;79.10;;;;;;5057883;28;20078;-80
2022/01/20 12:01:22;;;;;;;13.88;3.08;;;3.20;79.40;;;;;;5057979;28;20450;-77
2022/01/20 12:03:52;;;;;;;12.25;3.53;;;3.20;79.20;;;;;;5075868;28;20056;-77
2022/01/20 12:06:23;;;;;;;10.80;3.28;;;3.10;80.30;;;;;;5091539;28;20021;-81
2022/01/20 12:09:03;;;;;;;16.42;4.20;;;3.00;81.70;;;;;;5075768;28;20418;-80
2022/01/20 12:11:45;;;;;;;10.75;3.03;;;3.10;81.90;;;;;;5057674;28;20116;-80
2022/01/20 12:14:12;;;;;;;12.95;3.53;;;3.20;81.30;;;;;;5057577;28;20024;-80
2022/01/20 12:16:40;;;;;;;15.13;3.97;;;3.30;80.90;;;;;;5042163;28;20082;-79
2022/01/20 12:19:09;;;;;;;12.13;3.35;;;3.30;81.30;;;;;;5057606;28;20079;-79
2022/01/20 12:21:39;;;;;;;10.82;3.50;;;3.40;81.50;;;;;;5057708;28;20550;-77
2022/01/20 12:24:06;;;;;;;9.65;3.40;;;3.30;82.00;;;;;;5058265;28;20043;-79
2022/01/20 12:26:36;;;;;;;18.88;3.92;;;3.50;81.10;;;;;;5057265;28;20031;-77
2022/01/20 12:29:07;;;;;;;10.85;3.05;;;3.50;79.90;;;;;;5079663;28;20074;-78
2022/01/20 12:31:47;;;;;;;16.30;3.65;;;3.50;80.10;;;;;;5063236;28;20445;-78
2022/01/20 12:34:13;;;;;;;13.18;3.50;;;3.30;80.90;;;;;;5057487;28;20017;-78
2022/01/20 12:36:39;;;;;;;11.10;3.42;;;3.40;80.90;;;;;;5057334;28;20139;-78
2022/01/20 12:39:05;;;;;;;13.65;3.83;;;3.50;80.60;;;;;;5057134;28;20033;-78
2022/01/20 12:41:33;;;;;;;12.80;4.18;;;3.40;81.10;;;;;;5075273;28;20051;-78
2022/01/20 12:44:06;;;;;;;19.70;4.13;;;3.40;81.10;;;;;;5057334;28;20123;-79
2022/01/20 12:46:34;;;;;;;16.38;3.83;;;3.40;81.30;;;;;;5057207;28;20370;-80
2022/01/20 12:49:17;;;;;;;21.02;4.07;;;3.40;81.30;;;;;;5057786;28;20024;-79
2022/01/20 12:51:47;;;;;;;12.13;3.42;;;3.20;81.70;;;;;;5057245;28;20081;-78
2022/01/20 12:54:26;;;;;;;17.13;3.25;;;3.20;82.60;;;;;;5057007;28;20108;-78
2022/01/20 12:56:54;;;;;;;15.00;3.72;;;4.00;81.20;;;;;;5054670;28;20343;-76
2022/01/20 12:59:33;;;;;;;10.80;3.40;;;4.60;77.30;;;;;;5057299;28;20031;-79
2022/01/20 13:02:06;;;;;;;11.93;3.17;;;5.10;75.60;;;;;;5055837;28;20035;-81
2022/01/20 13:04:33;;;;;;;11.00;3.22;;;5.50;72.80;;;;;;5056841;28;20024;-80
2022/01/20 13:07:01;;;;;;;13.90;3.13;;;5.50;71.90;;;;;;5056595;28;20028;-80
2022/01/20 13:09:52;;;;;;;14.93;3.60;;;4.90;71.70;;;;;;5056751;28;20029;-79
2022/01/20 13:12:32;;;;;;;14.60;3.50;;;4.40;74.60;;;;;;5056626;28;20028;-78
2022/01/20 13:14:57;;;;;;;13.77;3.50;;;3.90;76.80;;;;;;5056596;28;20017;-78
2022/01/20 13:17:30;;;;;;;8.15;2.78;;;3.70;78.10;;;;;;5074533;28;20465;-80
2022/01/20 13:20:00;;;;;;;14.10;3.40;;;3.50;79.30;;;;;;5073256;28;20127;-79
2022/01/20 13:22:41;;;;;;;11.18;3.78;;;3.20;80.70;;;;;;5056396;28;20024;-79
2022/01/20 13:25:09;;;;;;;16.98;3.40;;;3.10;81.80;;;;;;5056588;28;20039;-80
2022/01/20 13:27:35;;;;;;;10.25;3.05;;;3.00;82.60;;;;;;5056331;28;20025;-79
2022/01/20 13:30:01;;;;;;;10.02;3.30;;;3.10;81.70;;;;;;5056195;28;20040;-79
2022/01/20 13:32:27;;;;;;;10.65;3.05;;;3.20;81.60;;;;;;5056251;28;20056;-80
2022/01/20 13:35:00;;;;;;;11.55;3.50;;;3.20;81.20;;;;;;5056275;28;20025;-80
2022/01/20 13:37:29;;;;;;;15.30;3.33;;;3.30;80.90;;;;;;5055846;28;20040;-80
2022/01/20 13:39:56;;;;;;;9.63;3.28;;;3.30;80.90;;;;;;5073832;28;20033;-78
2022/01/20 13:45:12;;;;;;;8.32;2.92;;;3.30;81.00;;;;;;5073751;28;20052;-78
2022/01/20 13:47:56;;;;;;;13.25;3.17;;;3.30;81.40;;;;;;5056061;28;20100;-78
2022/01/20 13:50:27;;;;;;;7.90;3.10;;;3.20;81.80;;;;;;5055729;28;20381;-77
2022/01/20 13:52:55;;;;;;;13.65;4.75;;;3.20;82.40;;;;;;5055322;28;20016;-77
2022/01/20 13:55:35;;;;;;;11.50;4.35;;;3.10;83.60;;;;;;5074035;28;20443;-78
2022/01/20 13:58:02;;;;;;;9.02;4.03;;;3.10;84.80;;;;;;5055644;28;20059;-80
2022/01/20 14:00:31;;;;;;;11.52;5.20;;;3.00;85.20;;;;;;5056086;28;20024;-77
2022/01/20 14:02:56;;;;;;;13.52;4.85;;;3.00;85.60;;;;;;5055485;28;20127;-76
2022/01/20 14:05:28;;;;;;;12.98;4.28;;;3.00;85.80;;;;;;5055716;28;20509;-80
2022/01/20 14:07:54;;;;;;;14.57;4.93;;;3.00;86.10;;;;;;5055950;28;20481;-79
2022/01/20 14:10:19;;;;;;;11.75;4.63;;;3.10;86.40;;;;;;5055733;28;20074;-79